sensor_id;sensor_type;location;lat;lon;timestamp;pressure;altitude;pressure_sealevel;temperature;humidity
49194;BME280;35029;50.804;12.866;2022-08-18T00:02:11;97218.50;;;20.60;68.73
49194;BME280;35029;50.804;12.866;2022-08-18T00:04:38;97222.81;;;20.62;68.38
49194;BME280;35029;50.804;12.866;2022-08-18T00:07:05;97211.78;;;20.53;68.63
49194;BME280;35029;50.804;12.866;2022-08-18T00:09:33;97210.16;;;20.57;68.73
49194;BME280;35029;50.804;12.866;2022-08-18T00:12:03;97208.03;;;20.54;68.74
49194;BME280;35029;50.804;12.866;2022-08-18T00:14:29;97208.88;;;20.44;68.86
49194;BME280;35029;50.804;12.866;2022-08-18T00:16:55;97196.47;;;20.33;69.64
49194;BME280;35029;50.804;12.866;2022-08-18T00:19:22;97209.13;;;20.37;69.46
49194;BME280;35029;50.804;12.866;2022-08-18T00:21:47;97203.75;;;20.37;69.52
49194;BME280;35029;50.804;12.866;2022-08-18T00:24:13;97208.06;;;20.28;69.52
49194;BME280;35029;50.804;12.866;2022-08-18T00:26:39;97201.63;;;20.34;69.25
49194;BME280;35029;50.804;12.866;2022-08-18T00:29:04;97214.53;;;20.27;69.57
49194;BME280;35029;50.804;12.866;2022-08-18T00:31:31;97213.44;;;20.23;69.47
49194;BME280;35029;50.804;12.866;2022-08-18T00:33:56;97211.88;;;20.17;69.80
49194;BME280;35029;50.804;12.866;2022-08-18T00:36:22;97205.38;;;20.18;69.21
49194;BME280;35029;50.804;12.866;2022-08-18T00:38:47;97207.00;;;20.14;69.44
49194;BME280;35029;50.804;12.866;2022-08-18T00:41:13;97198.16;;;20.03;69.46
49194;BME280;35029;50.804;12.866;2022-08-18T00:43:44;97196.25;;;19.98;69.67
49194;BME280;35029;50.804;12.866;2022-08-18T00:46:11;97201.09;;;20.01;69.49
49194;BME280;35029;50.804;12.866;2022-08-18T00:48:38;97206.75;;;20.05;69.59
49194;BME280;35029;50.804;12.866;2022-08-18T00:51:10;97219.41;;;20.04;69.79
49194;BME280;35029;50.804;12.866;2022-08-18T00:56:36;97223.16;;;19.98;70.06
49194;BME280;35029;50.804;12.866;2022-08-18T00:59:15;97214.53;;;20.01;69.66
49194;BME280;35029;50.804;12.866;2022-08-18T01:01:43;97214.00;;;19.99;69.69
49194;BME280;35029;50.804;12.866;2022-08-18T01:04:14;97214.81;;;20.05;69.13
49194;BME280;35029;50.804;12.866;2022-08-18T01:06:47;97191.16;;;19.91;69.15
49194;BME280;35029;50.804;12.866;2022-08-18T01:09:15;97213.47;;;19.97;69.74
49194;BME280;35029;50.804;12.866;2022-08-18T01:11:42;97210.25;;;20.00;69.02
49194;BME280;35029;50.804;12.866;2022-08-18T01:14:09;97210.53;;;19.93;69.44
49194;BME280;35029;50.804;12.866;2022-08-18T01:16:36;97212.94;;;19.85;70.32
49194;BME280;35029;50.804;12.866;2022-08-18T01:19:21;97205.41;;;19.82;70.34
49194;BME280;35029;50.804;12.866;2022-08-18T01:25:09;97211.84;;;19.81;69.56
49194;BME280;35029;50.804;12.866;2022-08-18T01:27:53;97193.00;;;19.70;69.53
49194;BME280;35029;50.804;12.866;2022-08-18T01:30:21;97207.25;;;19.71;69.10
49194;BME280;35029;50.804;12.866;2022-08-18T01:32:50;97224.97;;;19.62;70.73
49194;BME280;35029;50.804;12.866;2022-08-18T01:35:17;97209.66;;;19.57;71.18
49194;BME280;35029;50.804;12.866;2022-08-18T01:37:44;97220.94;;;19.59;72.63
49194;BME280;35029;50.804;12.866;2022-08-18T01:40:12;97213.41;;;19.61;72.72
49194;BME280;35029;50.804;12.866;2022-08-18T01:42:38;97218.53;;;19.68;71.55
49194;BME280;35029;50.804;12.866;2022-08-18T01:45:05;97225.28;;;19.70;70.81
49194;BME280;35029;50.804;12.866;2022-08-18T01:47:34;97218.81;;;19.66;70.47
49194;BME280;35029;50.804;12.866;2022-08-18T01:50:00;97226.88;;;19.61;71.19
49194;BME280;35029;50.804;12.866;2022-08-18T01:52:27;97224.97;;;19.56;71.62
49194;BME280;35029;50.804;12.866;2022-08-18T01:54:54;97224.41;;;19.49;71.30
49194;BME280;35029;50.804;12.866;2022-08-18T01:57:22;97221.72;;;19.39;72.24
49194;BME280;35029;50.804;12.866;2022-08-18T01:59:49;97221.97;;;19.42;72.18
49194;BME280;35029;50.804;12.866;2022-08-18T02:02:19;97226.28;;;19.38;72.77
49194;BME280;35029;50.804;12.866;2022-08-18T02:04:50;97208.78;;;19.36;72.11
49194;BME280;35029;50.804;12.866;2022-08-18T02:07:19;97220.13;;;19.43;71.18
49194;BME280;35029;50.804;12.866;2022-08-18T02:09:44;97219.56;;;19.41;71.71
49194;BME280;35029;50.804;12.866;2022-08-18T02:12:12;97221.47;;;19.46;70.88
49194;BME280;35029;50.804;12.866;2022-08-18T02:14:38;97220.91;;;19.38;71.76
49194;BME280;35029;50.804;12.866;2022-08-18T02:17:06;97215.78;;;19.27;72.07
49194;BME280;35029;50.804;12.866;2022-08-18T02:19:38;97224.09;;;19.30;72.19
49194;BME280;35029;50.804;12.866;2022-08-18T02:22:05;97221.13;;;19.32;71.63
49194;BME280;35029;50.804;12.866;2022-08-18T02:24:31;97220.88;;;19.28;71.90
49194;BME280;35029;50.804;12.866;2022-08-18T02:26:57;97210.66;;;19.20;71.64
49194;BME280;35029;50.804;12.866;2022-08-18T02:29:23;97199.88;;;19.15;71.84
49194;BME280;35029;50.804;12.866;2022-08-18T02:31:49;97216.53;;;19.17;72.24
49194;BME280;35029;50.804;12.866;2022-08-18T02:34:15;97206.31;;;19.14;72.84
49194;BME280;35029;50.804;12.866;2022-08-18T02:36:41;97213.84;;;19.12;72.86
49194;BME280;35029;50.804;12.866;2022-08-18T02:39:06;97202.56;;;19.15;72.72
49194;BME280;35029;50.804;12.866;2022-08-18T02:41:32;97207.13;;;19.09;73.24
49194;BME280;35029;50.804;12.866;2022-08-18T02:43:58;97191.78;;;19.04;73.23
49194;BME280;35029;50.804;12.866;2022-08-18T02:46:25;97201.16;;;19.02;73.13
49194;BME280;35029;50.804;12.866;2022-08-18T02:48:51;97200.94;;;19.03;73.36
49194;BME280;35029;50.804;12.866;2022-08-18T02:51:17;97206.03;;;19.05;73.52
49194;BME280;35029;50.804;12.866;2022-08-18T02:53:45;97207.63;;;19.06;72.89
49194;BME280;35029;50.804;12.866;2022-08-18T02:56:20;97200.38;;;19.01;73.97
49194;BME280;35029;50.804;12.866;2022-08-18T02:58:51;97193.66;;;19.04;73.32
49194;BME280;35029;50.804;12.866;2022-08-18T03:01:20;97189.09;;;19.04;73.42
49194;BME280;35029;50.804;12.866;2022-08-18T03:03:46;97200.97;;;19.19;73.01
49194;BME280;35029;50.804;12.866;2022-08-18T03:06:12;97200.16;;;19.23;73.31
49194;BME280;35029;50.804;12.866;2022-08-18T03:08:38;97178.38;;;19.15;73.53
49194;BME280;35029;50.804;12.866;2022-08-18T03:11:03;97203.13;;;19.27;73.87
49194;BME280;35029;50.804;12.866;2022-08-18T03:13:29;97176.25;;;19.22;73.52
49194;BME280;35029;50.804;12.866;2022-08-18T03:15:55;97201.00;;;19.34;73.16
49194;BME280;35029;50.804;12.866;2022-08-18T03:18:21;97199.13;;;19.30;73.28
49194;BME280;35029;50.804;12.866;2022-08-18T03:20:48;97183.00;;;19.30;73.66
49194;BME280;35029;50.804;12.866;2022-08-18T03:23:15;97182.47;;;19.33;74.01
49194;BME280;35029;50.804;12.866;2022-08-18T03:25:48;97178.97;;;19.32;73.93
49194;BME280;35029;50.804;12.866;2022-08-18T03:28:15;97177.09;;;19.33;73.69
49194;BME280;35029;50.804;12.866;2022-08-18T03:30:42;97175.97;;;19.23;73.77
49194;BME280;35029;50.804;12.866;2022-08-18T03:33:08;97175.72;;;19.25;74.02
49194;BME280;35029;50.804;12.866;2022-08-18T03:35:35;97156.06;;;19.04;73.95
49194;BME280;35029;50.804;12.866;2022-08-18T03:38:01;97175.97;;;19.13;74.02
49194;BME280;35029;50.804;12.866;2022-08-18T03:40:27;97147.09;;;18.83;74.13
49194;BME280;35029;50.804;12.866;2022-08-18T03:42:54;97170.50;;;18.87;74.75
49194;BME280;35029;50.804;12.866;2022-08-18T03:45:19;97178.88;;;18.91;75.88
49194;BME280;35029;50.804;12.866;2022-08-18T03:47:48;97177.00;;;19.02;76.04
49194;BME280;35029;50.804;12.866;2022-08-18T03:50:16;97179.69;;;18.97;75.95
49194;BME280;35029;50.804;12.866;2022-08-18T03:52:44;97184.75;;;18.93;75.84
49194;BME280;35029;50.804;12.866;2022-08-18T03:55:14;97180.47;;;18.92;75.84
49194;BME280;35029;50.804;12.866;2022-08-18T03:57:42;97170.47;;;18.82;75.83
49194;BME280;35029;50.804;12.866;2022-08-18T04:00:08;97169.44;;;18.94;75.91
49194;BME280;35029;50.804;12.866;2022-08-18T04:02:34;97168.91;;;18.91;75.95
49194;BME280;35029;50.804;12.866;2022-08-18T04:04:59;97179.56;;;18.81;76.00
49194;BME280;35029;50.804;12.866;2022-08-18T04:07:25;97175.53;;;18.79;76.03
49194;BME280;35029;50.804;12.866;2022-08-18T04:09:50;97181.72;;;18.79;75.88
49194;BME280;35029;50.804;12.866;2022-08-18T04:12:17;97183.34;;;18.80;76.03
49194;BME280;35029;50.804;12.866;2022-08-18T04:14:45;97181.72;;;18.79;76.32
49194;BME280;35029;50.804;12.866;2022-08-18T04:17:12;97187.63;;;18.76;76.60
49194;BME280;35029;50.804;12.866;2022-08-18T04:19:38;97183.06;;;18.77;76.62
49194;BME280;35029;50.804;12.866;2022-08-18T04:22:04;97187.09;;;18.79;76.45
49194;BME280;35029;50.804;12.866;2022-08-18T04:24:32;97188.19;;;18.83;76.97
49194;BME280;35029;50.804;12.866;2022-08-18T04:27:01;97181.28;;;18.92;76.95
49194;BME280;35029;50.804;12.866;2022-08-18T04:29:27;97172.69;;;18.96;76.20
49194;BME280;35029;50.804;12.866;2022-08-18T04:31:53;97172.44;;;18.97;76.41
49194;BME280;35029;50.804;12.866;2022-08-18T04:34:20;97184.28;;;19.06;76.75
49194;BME280;35029;50.804;12.866;2022-08-18T04:36:47;97154.19;;;18.99;77.10
49194;BME280;35029;50.804;12.866;2022-08-18T04:39:13;97188.06;;;19.21;76.70
49194;BME280;35029;50.804;12.866;2022-08-18T04:41:42;97181.09;;;19.25;76.73
49194;BME280;35029;50.804;12.866;2022-08-18T04:44:09;97183.00;;;19.40;77.07
49194;BME280;35029;50.804;12.866;2022-08-18T04:46:38;97182.47;;;19.48;76.84
49194;BME280;35029;50.804;12.866;2022-08-18T04:49:04;97186.00;;;19.54;76.94
49194;BME280;35029;50.804;12.866;2022-08-18T04:51:30;97181.41;;;19.54;78.48
49194;BME280;35029;50.804;12.866;2022-08-18T04:53:56;97183.56;;;19.57;78.33
49194;BME280;35029;50.804;12.866;2022-08-18T04:56:35;97161.78;;;19.49;77.68
49194;BME280;35029;50.804;12.866;2022-08-18T04:59:07;97186.53;;;19.61;77.52
49194;BME280;35029;50.804;12.866;2022-08-18T05:01:41;97194.06;;;19.69;76.69
49194;BME280;35029;50.804;12.866;2022-08-18T05:04:08;97183.31;;;19.69;76.62
49194;BME280;35029;50.804;12.866;2022-08-18T05:06:35;97183.84;;;19.71;77.16
49194;BME280;35029;50.804;12.866;2022-08-18T05:09:04;97202.97;;;19.90;76.17
49194;BME280;35029;50.804;12.866;2022-08-18T05:11:32;97204.03;;;19.95;75.52
49194;BME280;35029;50.804;12.866;2022-08-18T05:14:00;97206.75;;;20.10;75.29
49194;BME280;35029;50.804;12.866;2022-08-18T05:16:27;97196.78;;;20.21;76.22
49194;BME280;35029;50.804;12.866;2022-08-18T05:18:53;97184.13;;;20.21;74.98
49194;BME280;35029;50.804;12.866;2022-08-18T05:21:20;97189.75;;;20.46;75.09
49194;BME280;35029;50.804;12.866;2022-08-18T05:23:48;97196.16;;;20.60;74.88
49194;BME280;35029;50.804;12.866;2022-08-18T05:26:16;97198.34;;;20.68;74.38
49194;BME280;35029;50.804;12.866;2022-08-18T05:28:43;97195.09;;;20.71;75.06
49194;BME280;35029;50.804;12.866;2022-08-18T05:31:13;97202.09;;;20.72;75.10
49194;BME280;35029;50.804;12.866;2022-08-18T05:33:39;97200.47;;;20.76;74.56
49194;BME280;35029;50.804;12.866;2022-08-18T05:41:44;97216.84;;;20.85;75.20
49194;BME280;35029;50.804;12.866;2022-08-18T05:44:15;97215.50;;;20.93;74.07
49194;BME280;35029;50.804;12.866;2022-08-18T05:46:47;97212.19;;;21.06;73.01
49194;BME280;35029;50.804;12.866;2022-08-18T05:49:15;97213.75;;;21.18;72.80
49194;BME280;35029;50.804;12.866;2022-08-18T05:51:44;97206.72;;;21.22;72.96
49194;BME280;35029;50.804;12.866;2022-08-18T05:54:11;97213.19;;;21.21;72.64
49194;BME280;35029;50.804;12.866;2022-08-18T05:57:01;97222.34;;;21.25;72.63
49194;BME280;35029;50.804;12.866;2022-08-18T05:59:36;97215.88;;;21.26;73.20
49194;BME280;35029;50.804;12.866;2022-08-18T06:04:54;97221.84;;;21.18;72.94
49194;BME280;35029;50.804;12.866;2022-08-18T06:07:35;97227.75;;;21.20;72.98
49194;BME280;35029;50.804;12.866;2022-08-18T06:10:03;97218.31;;;21.22;72.91
49194;BME280;35029;50.804;12.866;2022-08-18T06:12:36;97212.13;;;21.17;73.97
49194;BME280;35029;50.804;12.866;2022-08-18T06:20:20;97233.88;;;21.36;71.83
49194;BME280;35029;50.804;12.866;2022-08-18T06:23:07;97235.97;;;21.49;72.99
49194;BME280;35029;50.804;12.866;2022-08-18T06:28:25;97242.03;;;21.75;64.69
49194;BME280;35029;50.804;12.866;2022-08-18T06:34:02;97259.44;;;21.93;64.35
49194;BME280;35029;50.804;12.866;2022-08-18T06:37:00;97273.72;;;21.99;61.43
49194;BME280;35029;50.804;12.866;2022-08-18T06:39:41;97278.53;;;22.02;60.61
49194;BME280;35029;50.804;12.866;2022-08-18T06:42:09;97283.91;;;22.07;61.49
49194;BME280;35029;50.804;12.866;2022-08-18T06:44:52;97275.34;;;21.95;60.72
49194;BME280;35029;50.804;12.866;2022-08-18T06:50:03;97301.19;;;22.06;57.51
49194;BME280;35029;50.804;12.866;2022-08-18T06:52:33;97291.00;;;21.93;58.48
49194;BME280;35029;50.804;12.866;2022-08-18T06:55:06;97302.25;;;22.05;58.67
49194;BME280;35029;50.804;12.866;2022-08-18T06:57:40;97306.03;;;22.04;57.92
49194;BME280;35029;50.804;12.866;2022-08-18T07:02:43;97309.78;;;22.08;57.28
49194;BME280;35029;50.804;12.866;2022-08-18T07:05:21;97316.19;;;22.23;57.05
49194;BME280;35029;50.804;12.866;2022-08-18T07:08:11;97312.88;;;22.31;57.87
49194;BME280;35029;50.804;12.866;2022-08-18T07:10:42;97315.03;;;22.34;58.72
49194;BME280;35029;50.804;12.866;2022-08-18T07:15:38;97301.28;;;22.65;56.20
49194;BME280;35029;50.804;12.866;2022-08-18T07:18:06;97299.00;;;22.77;55.82
49194;BME280;35029;50.804;12.866;2022-08-18T07:20:48;97303.25;;;22.84;56.29
49194;BME280;35029;50.804;12.866;2022-08-18T07:26:05;97301.97;;;22.76;57.55
49194;BME280;35029;50.804;12.866;2022-08-18T07:28:40;97307.72;;;22.69;55.57
49194;BME280;35029;50.804;12.866;2022-08-18T07:31:54;97298.91;;;22.58;56.61
49194;BME280;35029;50.804;12.866;2022-08-18T07:34:22;97299.97;;;22.57;56.57
49194;BME280;35029;50.804;12.866;2022-08-18T07:37:18;97305.34;;;22.62;58.06
49194;BME280;35029;50.804;12.866;2022-08-18T07:39:56;97300.19;;;22.66;57.65
49194;BME280;35029;50.804;12.866;2022-08-18T07:42:58;97306.44;;;22.61;56.27
49194;BME280;35029;50.804;12.866;2022-08-18T07:45:27;97307.72;;;22.69;58.07
49194;BME280;35029;50.804;12.866;2022-08-18T07:48:05;97306.22;;;22.58;55.88
49194;BME280;35029;50.804;12.866;2022-08-18T07:50:45;97287.00;;;22.59;56.98
49194;BME280;35029;50.804;12.866;2022-08-18T07:56:31;97297.75;;;22.94;54.19
49194;BME280;35029;50.804;12.866;2022-08-18T07:59:20;97310.56;;;22.83;55.58
49194;BME280;35029;50.804;12.866;2022-08-18T08:07:44;97300.25;;;23.09;56.08
49194;BME280;35029;50.804;12.866;2022-08-18T08:10:31;97306.19;;;23.17;57.80
49194;BME280;35029;50.804;12.866;2022-08-18T08:13:34;97318.69;;;23.07;56.62
49194;BME280;35029;50.804;12.866;2022-08-18T08:22:18;97304.94;;;23.04;54.65
49194;BME280;35029;50.804;12.866;2022-08-18T08:30:14;97320.31;;;23.08;55.15
49194;BME280;35029;50.804;12.866;2022-08-18T08:33:05;97315.22;;;23.02;54.93
49194;BME280;35029;50.804;12.866;2022-08-18T08:38:54;97308.38;;;23.09;57.52
49194;BME280;35029;50.804;12.866;2022-08-18T08:41:33;97300.16;;;22.95;57.56
49194;BME280;35029;50.804;12.866;2022-08-18T08:44:13;97298.81;;;22.93;57.28
49194;BME280;35029;50.804;12.866;2022-08-18T08:46:48;97304.53;;;22.91;56.51
49194;BME280;35029;50.804;12.866;2022-08-18T08:49:22;97310.84;;;22.82;55.86
49194;BME280;35029;50.804;12.866;2022-08-18T08:52:14;97317.91;;;22.77;56.08
49194;BME280;35029;50.804;12.866;2022-08-18T08:55:22;97321.19;;;22.74;56.14
49194;BME280;35029;50.804;12.866;2022-08-18T08:57:56;97316.81;;;22.78;55.86
49194;BME280;35029;50.804;12.866;2022-08-18T09:00:24;97316.28;;;22.76;56.29
49194;BME280;35029;50.804;12.866;2022-08-18T09:03:15;97324.69;;;22.75;56.22
49194;BME280;35029;50.804;12.866;2022-08-18T09:06:24;97320.78;;;22.86;55.56
49194;BME280;35029;50.804;12.866;2022-08-18T09:09:02;97310.22;;;22.90;55.81
49194;BME280;35029;50.804;12.866;2022-08-18T09:11:56;97295.00;;;22.99;55.83
49194;BME280;35029;50.804;12.866;2022-08-18T09:25:52;97283.00;;;23.05;54.86
49194;BME280;35029;50.804;12.866;2022-08-18T09:36:29;97273.06;;;23.01;57.21
49194;BME280;35029;50.804;12.866;2022-08-18T09:41:52;97251.22;;;22.97;55.66
49194;BME280;35029;50.804;12.866;2022-08-18T09:49:49;97256.59;;;23.45;55.43
49194;BME280;35029;50.804;12.866;2022-08-18T09:57:40;97234.53;;;23.57;55.89
49194;BME280;35029;50.804;12.866;2022-08-18T10:07:51;97287.53;;;23.77;54.71
49194;BME280;35029;50.804;12.866;2022-08-18T10:10:27;97289.81;;;23.70;57.61
49194;BME280;35029;50.804;12.866;2022-08-18T10:23:56;97276.94;;;23.62;57.40
49194;BME280;35029;50.804;12.866;2022-08-18T10:31:23;97285.91;;;23.38;56.65
49194;BME280;35029;50.804;12.866;2022-08-18T10:34:08;97289.13;;;23.40;56.65
49194;BME280;35029;50.804;12.866;2022-08-18T10:36:43;97308.09;;;23.35;59.53
49194;BME280;35029;50.804;12.866;2022-08-18T10:39:13;97301.88;;;23.10;56.74
49194;BME280;35029;50.804;12.866;2022-08-18T10:42:01;97327.28;;;23.15;57.86
49194;BME280;35029;50.804;12.866;2022-08-18T10:44:33;97331.91;;;23.09;58.55
49194;BME280;35029;50.804;12.866;2022-08-18T10:47:02;97315.00;;;22.98;59.85
49194;BME280;35029;50.804;12.866;2022-08-18T10:49:30;97313.13;;;22.69;62.43
49194;BME280;35029;50.804;12.866;2022-08-18T10:55:14;97296.53;;;22.52;67.89
49194;BME280;35029;50.804;12.866;2022-08-18T11:06:22;97285.50;;;22.08;73.34
49194;BME280;35029;50.804;12.866;2022-08-18T11:08:55;97287.09;;;22.15;73.08
49194;BME280;35029;50.804;12.866;2022-08-18T11:11:25;97296.22;;;22.19;73.46
49194;BME280;35029;50.804;12.866;2022-08-18T11:19:24;97306.69;;;22.31;73.20
49194;BME280;35029;50.804;12.866;2022-08-18T11:21:51;97306.31;;;22.42;73.77
49194;BME280;35029;50.804;12.866;2022-08-18T11:24:28;97308.41;;;22.51;73.45
49194;BME280;35029;50.804;12.866;2022-08-18T11:26:58;97301.53;;;22.69;73.04
49194;BME280;35029;50.804;12.866;2022-08-18T11:32:23;97323.09;;;22.98;71.68
49194;BME280;35029;50.804;12.866;2022-08-18T11:34:58;97328.47;;;23.03;69.43
49194;BME280;35029;50.804;12.866;2022-08-18T11:39:58;97323.00;;;23.08;64.10
49194;BME280;35029;50.804;12.866;2022-08-18T11:42:32;97318.69;;;23.07;65.50
49194;BME280;35029;50.804;12.866;2022-08-18T11:45:15;97303.09;;;22.99;65.08
49194;BME280;35029;50.804;12.866;2022-08-18T11:48:19;97307.84;;;23.12;65.29
49194;BME280;35029;50.804;12.866;2022-08-18T11:58:43;97315.09;;;23.41;62.80
49194;BME280;35029;50.804;12.866;2022-08-18T12:01:31;97313.41;;;23.45;63.94
49194;BME280;35029;50.804;12.866;2022-08-18T12:06:36;97302.63;;;23.65;62.52
49194;BME280;35029;50.804;12.866;2022-08-18T12:09:40;97309.25;;;23.72;61.69
49194;BME280;35029;50.804;12.866;2022-08-18T12:12:02;97312.41;;;23.60;61.52
49194;BME280;35029;50.804;12.866;2022-08-18T12:14:31;97317.28;;;23.58;61.46
49194;BME280;35029;50.804;12.866;2022-08-18T12:16:58;97320.44;;;23.46;61.49
49194;BME280;35029;50.804;12.866;2022-08-18T12:19:25;97325.38;;;23.39;62.03
49194;BME280;35029;50.804;12.866;2022-08-18T12:21:59;97320.66;;;23.26;61.76
49194;BME280;35029;50.804;12.866;2022-08-18T12:24:30;97308.00;;;23.21;63.18
49194;BME280;35029;50.804;12.866;2022-08-18T12:26:57;97305.59;;;23.20;64.17
49194;BME280;35029;50.804;12.866;2022-08-18T12:29:24;97297.25;;;23.16;64.16
49194;BME280;35029;50.804;12.866;2022-08-18T12:31:53;97293.69;;;23.21;64.46
49194;BME280;35029;50.804;12.866;2022-08-18T12:34:20;97303.13;;;23.23;61.90
49194;BME280;35029;50.804;12.866;2022-08-18T12:36:53;97305.47;;;23.30;62.85
49194;BME280;35029;50.804;12.866;2022-08-18T12:39:20;97302.50;;;23.32;62.72
49194;BME280;35029;50.804;12.866;2022-08-18T12:41:45;97297.88;;;23.32;61.08
49194;BME280;35029;50.804;12.866;2022-08-18T12:44:11;97289.34;;;23.44;61.12
49194;BME280;35029;50.804;12.866;2022-08-18T12:46:37;97289.03;;;23.70;61.23
49194;BME280;35029;50.804;12.866;2022-08-18T12:49:03;97279.44;;;23.96;58.71
49194;BME280;35029;50.804;12.866;2022-08-18T12:51:29;97284.91;;;24.10;59.23
49194;BME280;35029;50.804;12.866;2022-08-18T12:53:55;97275.97;;;24.76;57.23
49194;BME280;35029;50.804;12.866;2022-08-18T12:56:29;97268.78;;;25.41;55.64
49194;BME280;35029;50.804;12.866;2022-08-18T12:58:57;97264.75;;;25.89;53.35
49194;BME280;35029;50.804;12.866;2022-08-18T13:01:24;97252.13;;;26.07;51.88
49194;BME280;35029;50.804;12.866;2022-08-18T13:03:51;97250.50;;;26.28;51.77
49194;BME280;35029;50.804;12.866;2022-08-18T13:06:20;97240.03;;;26.36;51.18
49194;BME280;35029;50.804;12.866;2022-08-18T13:08:48;97238.22;;;26.31;51.53
49194;BME280;35029;50.804;12.866;2022-08-18T13:11:15;97219.31;;;26.48;51.74
49194;BME280;35029;50.804;12.866;2022-08-18T13:13:42;97205.81;;;26.66;51.08
49194;BME280;35029;50.804;12.866;2022-08-18T13:16:09;97209.22;;;26.72;50.65
49194;BME280;35029;50.804;12.866;2022-08-18T13:18:35;97227.97;;;26.82;50.33
49194;BME280;35029;50.804;12.866;2022-08-18T13:21:02;97235.94;;;26.78;51.79
49194;BME280;35029;50.804;12.866;2022-08-18T13:23:27;97232.44;;;26.87;49.67
49194;BME280;35029;50.804;12.866;2022-08-18T13:25:55;97246.59;;;27.06;50.59
49194;BME280;35029;50.804;12.866;2022-08-18T13:28:22;97239.09;;;27.12;48.94
49194;BME280;35029;50.804;12.866;2022-08-18T13:30:48;97236.50;;;26.35;51.34
49194;BME280;35029;50.804;12.866;2022-08-18T13:33:17;97240.09;;;25.99;53.22
49194;BME280;35029;50.804;12.866;2022-08-18T13:35:45;97236.47;;;25.67;53.52
49194;BME280;35029;50.804;12.866;2022-08-18T13:38:11;97240.34;;;25.24;54.28
49194;BME280;35029;50.804;12.866;2022-08-18T13:40:38;97235.25;;;25.09;57.25
49194;BME280;35029;50.804;12.866;2022-08-18T13:43:03;97244.38;;;24.71;56.32
49194;BME280;35029;50.804;12.866;2022-08-18T13:45:29;97246.53;;;24.55;56.83
49194;BME280;35029;50.804;12.866;2022-08-18T13:47:55;97245.72;;;24.55;57.89
49194;BME280;35029;50.804;12.866;2022-08-18T13:50:20;97260.97;;;24.51;57.31
49194;BME280;35029;50.804;12.866;2022-08-18T13:52:47;97257.84;;;24.43;58.05
49194;BME280;35029;50.804;12.866;2022-08-18T13:55:16;97252.63;;;24.47;57.92
49194;BME280;35029;50.804;12.866;2022-08-18T13:57:43;97243.31;;;24.53;58.54
49194;BME280;35029;50.804;12.866;2022-08-18T14:00:17;97240.97;;;24.66;57.10
49194;BME280;35029;50.804;12.866;2022-08-18T14:02:45;97229.03;;;24.80;57.95
49194;BME280;35029;50.804;12.866;2022-08-18T14:05:13;97219.69;;;25.01;57.57
49194;BME280;35029;50.804;12.866;2022-08-18T14:07:41;97209.44;;;25.11;56.26
49194;BME280;35029;50.804;12.866;2022-08-18T14:10:07;97207.03;;;24.96;56.84
49194;BME280;35029;50.804;12.866;2022-08-18T14:12:35;97217.69;;;24.92;56.61
49194;BME280;35029;50.804;12.866;2022-08-18T14:15:04;97227.63;;;24.83;56.76
49194;BME280;35029;50.804;12.866;2022-08-18T14:17:31;97234.63;;;25.12;55.46
49194;BME280;35029;50.804;12.866;2022-08-18T14:19:57;97234.38;;;25.64;55.80
49194;BME280;35029;50.804;12.866;2022-08-18T14:22:41;97219.94;;;26.14;54.02
49194;BME280;35029;50.804;12.866;2022-08-18T14:25:26;97217.38;;;26.18;53.84
49194;BME280;35029;50.804;12.866;2022-08-18T14:28:10;97210.41;;;26.03;53.67
49194;BME280;35029;50.804;12.866;2022-08-18T14:30:36;97211.69;;;26.28;53.88
49194;BME280;35029;50.804;12.866;2022-08-18T14:33:07;97213.88;;;26.17;53.05
49194;BME280;35029;50.804;12.866;2022-08-18T14:35:34;97217.16;;;26.37;51.86
49194;BME280;35029;50.804;12.866;2022-08-18T14:38:01;97218.22;;;26.27;51.87
49194;BME280;35029;50.804;12.866;2022-08-18T14:40:28;97214.09;;;26.29;52.08
49194;BME280;35029;50.804;12.866;2022-08-18T14:42:53;97202.56;;;26.55;50.92
49194;BME280;35029;50.804;12.866;2022-08-18T14:45:20;97184.50;;;26.59;51.27
49194;BME280;35029;50.804;12.866;2022-08-18T14:47:45;97182.78;;;26.32;51.75
49194;BME280;35029;50.804;12.866;2022-08-18T14:50:11;97182.38;;;26.47;51.83
49194;BME280;35029;50.804;12.866;2022-08-18T14:52:40;97190.69;;;26.42;51.98
49194;BME280;35029;50.804;12.866;2022-08-18T14:55:08;97180.59;;;26.43;51.58
49194;BME280;35029;50.804;12.866;2022-08-18T14:57:37;97186.59;;;26.22;52.10
49194;BME280;35029;50.804;12.866;2022-08-18T15:00:06;97192.44;;;26.15;52.05
49194;BME280;35029;50.804;12.866;2022-08-18T15:02:35;97197.59;;;26.26;52.83
49194;BME280;35029;50.804;12.866;2022-08-18T15:05:00;97195.28;;;26.42;52.16
49194;BME280;35029;50.804;12.866;2022-08-18T15:07:26;97184.16;;;26.84;51.84
49194;BME280;35029;50.804;12.866;2022-08-18T15:09:52;97182.81;;;26.72;51.42
49194;BME280;35029;50.804;12.866;2022-08-18T15:12:18;97188.84;;;26.69;51.57
49194;BME280;35029;50.804;12.866;2022-08-18T15:14:44;97189.63;;;27.01;51.61
49194;BME280;35029;50.804;12.866;2022-08-18T15:17:10;97186.91;;;27.01;50.50
49194;BME280;35029;50.804;12.866;2022-08-18T15:19:36;97179.50;;;26.84;50.87
49194;BME280;35029;50.804;12.866;2022-08-18T15:22:02;97181.47;;;26.61;50.88
49194;BME280;35029;50.804;12.866;2022-08-18T15:24:46;97179.22;;;26.54;51.45
49194;BME280;35029;50.804;12.866;2022-08-18T15:27:34;97165.44;;;26.99;50.94
49194;BME280;35029;50.804;12.866;2022-08-18T15:30:06;97173.94;;;26.98;50.43
49194;BME280;35029;50.804;12.866;2022-08-18T15:32:32;97162.13;;;27.03;49.32
49194;BME280;35029;50.804;12.866;2022-08-18T15:34:57;97149.16;;;27.08;49.53
49194;BME280;35029;50.804;12.866;2022-08-18T15:37:32;97149.50;;;27.15;49.27
49194;BME280;35029;50.804;12.866;2022-08-18T15:40:08;97148.69;;;27.24;49.68